sensor_id;sensor_type;location;lat;lon;timestamp;P1;durP1;ratioP1;P2;durP2;ratioP2
62951;SDS011;52163;52.212;-1.002;2022-08-21T00:01:10;9.60;;;2.20;;
62951;SDS011;52163;52.212;-1.002;2022-08-21T00:03:38;8.90;;;1.90;;
62951;SDS011;52163;52.212;-1.002;2022-08-21T00:06:04;8.10;;;2.50;;
62951;SDS011;52163;52.212;-1.002;2022-08-21T00:08:29;11.10;;;3.10;;
62951;SDS011;52163;52.212;-1.002;2022-08-21T00:10:55;16.00;;;4.60;;
62951;SDS011;52163;52.212;-1.002;2022-08-21T00:13:20;15.20;;;3.80;;
62951;SDS011;52163;52.212;-1.002;2022-08-21T00:15:46;7.30;;;2.10;;
62951;SDS011;52163;52.212;-1.002;2022-08-21T00:18:13;9.70;;;2.50;;
62951;SDS011;52163;52.212;-1.002;2022-08-21T00:20:39;10.00;;;2.10;;
62951;SDS011;52163;52.212;-1.002;2022-08-21T00:23:06;6.40;;;1.80;;
62951;SDS011;52163;52.212;-1.002;2022-08-21T00:25:32;8.00;;;2.20;;
62951;SDS011;52163;52.212;-1.002;2022-08-21T00:27:58;5.20;;;1.50;;
62951;SDS011;52163;52.212;-1.002;2022-08-21T00:30:25;7.50;;;2.50;;
62951;SDS011;52163;52.212;-1.002;2022-08-21T00:32:52;11.20;;;2.60;;
62951;SDS011;52163;52.212;-1.002;2022-08-21T00:35:20;10.10;;;3.00;;
62951;SDS011;52163;52.212;-1.002;2022-08-21T00:37:49;16.10;;;4.50;;
62951;SDS011;52163;52.212;-1.002;2022-08-21T00:40:16;17.00;;;4.30;;
62951;SDS011;52163;52.212;-1.002;2022-08-21T00:42:43;8.70;;;3.00;;
62951;SDS011;52163;52.212;-1.002;2022-08-21T00:45:10;11.30;;;2.90;;
62951;SDS011;52163;52.212;-1.002;2022-08-21T00:47:36;6.70;;;1.90;;
62951;SDS011;52163;52.212;-1.002;2022-08-21T00:50:03;10.20;;;2.00;;
62951;SDS011;52163;52.212;-1.002;2022-08-21T00:52:31;11.70;;;2.50;;
62951;SDS011;52163;52.212;-1.002;2022-08-21T00:54:59;6.70;;;2.00;;
62951;SDS011;52163;52.212;-1.002;2022-08-21T00:58:08;6.80;;;2.10;;
62951;SDS011;52163;52.212;-1.002;2022-08-21T01:00:17;10.70;;;2.60;;
62951;SDS011;52163;52.212;-1.002;2022-08-21T01:02:46;10.70;;;2.60;;
62951;SDS011;52163;52.212;-1.002;2022-08-21T01:05:12;6.60;;;1.60;;
62951;SDS011;52163;52.212;-1.002;2022-08-21T01:07:38;9.60;;;2.30;;
62951;SDS011;52163;52.212;-1.002;2022-08-21T01:10:04;6.60;;;1.90;;
62951;SDS011;52163;52.212;-1.002;2022-08-21T01:12:31;10.20;;;2.20;;
62951;SDS011;52163;52.212;-1.002;2022-08-21T01:14:58;15.80;;;2.30;;
62951;SDS011;52163;52.212;-1.002;2022-08-21T01:17:24;6.40;;;2.20;;
62951;SDS011;52163;52.212;-1.002;2022-08-21T01:19:51;10.80;;;2.20;;
62951;SDS011;52163;52.212;-1.002;2022-08-21T01:22:17;5.80;;;2.00;;
62951;SDS011;52163;52.212;-1.002;2022-08-21T01:24:44;7.80;;;2.40;;
62951;SDS011;52163;52.212;-1.002;2022-08-21T01:27:10;9.00;;;2.20;;
62951;SDS011;52163;52.212;-1.002;2022-08-21T01:29:41;10.00;;;2.20;;
62951;SDS011;52163;52.212;-1.002;2022-08-21T01:32:24;9.90;;;2.90;;
62951;SDS011;52163;52.212;-1.002;2022-08-21T01:34:50;12.10;;;3.20;;
62951;SDS011;52163;52.212;-1.002;2022-08-21T01:37:16;19.60;;;3.80;;
62951;SDS011;52163;52.212;-1.002;2022-08-21T01:39:44;12.20;;;3.20;;
62951;SDS011;52163;52.212;-1.002;2022-08-21T01:42:10;14.80;;;3.60;;
62951;SDS011;52163;52.212;-1.002;2022-08-21T01:44:35;12.90;;;3.20;;
62951;SDS011;52163;52.212;-1.002;2022-08-21T01:47:03;14.30;;;3.20;;
62951;SDS011;52163;52.212;-1.002;2022-08-21T01:49:31;9.30;;;2.50;;
62951;SDS011;52163;52.212;-1.002;2022-08-21T01:51:56;10.90;;;2.30;;
62951;SDS011;52163;52.212;-1.002;2022-08-21T01:54:22;7.30;;;2.50;;
62951;SDS011;52163;52.212;-1.002;2022-08-21T01:56:48;5.80;;;1.80;;
62951;SDS011;52163;52.212;-1.002;2022-08-21T01:59:16;11.20;;;2.40;;
62951;SDS011;52163;52.212;-1.002;2022-08-21T02:01:42;8.70;;;2.00;;
62951;SDS011;52163;52.212;-1.002;2022-08-21T02:04:08;6.70;;;2.10;;
62951;SDS011;52163;52.212;-1.002;2022-08-21T02:06:35;8.40;;;2.20;;
62951;SDS011;52163;52.212;-1.002;2022-08-21T02:09:03;13.00;;;2.60;;
62951;SDS011;52163;52.212;-1.002;2022-08-21T02:11:29;11.00;;;2.20;;
62951;SDS011;52163;52.212;-1.002;2022-08-21T02:13:55;10.00;;;2.20;;
62951;SDS011;52163;52.212;-1.002;2022-08-21T02:16:20;10.60;;;2.50;;
62951;SDS011;52163;52.212;-1.002;2022-08-21T02:18:46;14.90;;;2.50;;
62951;SDS011;52163;52.212;-1.002;2022-08-21T02:21:12;8.80;;;2.60;;
62951;SDS011;52163;52.212;-1.002;2022-08-21T02:23:37;11.90;;;2.60;;
62951;SDS011;52163;52.212;-1.002;2022-08-21T02:26:04;11.50;;;2.60;;
62951;SDS011;52163;52.212;-1.002;2022-08-21T02:28:31;9.10;;;2.40;;
62951;SDS011;52163;52.212;-1.002;2022-08-21T02:30:57;12.30;;;2.40;;
62951;SDS011;52163;52.212;-1.002;2022-08-21T02:33:25;11.00;;;2.40;;
62951;SDS011;52163;52.212;-1.002;2022-08-21T02:35:51;10.30;;;2.70;;
62951;SDS011;52163;52.212;-1.002;2022-08-21T02:38:19;15.60;;;2.60;;
62951;SDS011;52163;52.212;-1.002;2022-08-21T02:40:48;9.60;;;2.40;;
62951;SDS011;52163;52.212;-1.002;2022-08-21T02:43:16;9.20;;;2.10;;
62951;SDS011;52163;52.212;-1.002;2022-08-21T02:45:43;7.50;;;2.00;;
62951;SDS011;52163;52.212;-1.002;2022-08-21T02:48:12;10.50;;;3.00;;
62951;SDS011;52163;52.212;-1.002;2022-08-21T02:50:45;12.60;;;2.30;;
62951;SDS011;52163;52.212;-1.002;2022-08-21T02:53:15;12.40;;;2.80;;
62951;SDS011;52163;52.212;-1.002;2022-08-21T02:55:42;6.90;;;1.90;;
62951;SDS011;52163;52.212;-1.002;2022-08-21T02:58:12;8.70;;;2.40;;
62951;SDS011;52163;52.212;-1.002;2022-08-21T03:00:39;10.40;;;2.20;;
62951;SDS011;52163;52.212;-1.002;2022-08-21T03:03:05;7.50;;;1.90;;
62951;SDS011;52163;52.212;-1.002;2022-08-21T03:05:31;8.20;;;2.50;;
62951;SDS011;52163;52.212;-1.002;2022-08-21T03:07:59;10.20;;;2.90;;
62951;SDS011;52163;52.212;-1.002;2022-08-21T03:10:26;13.20;;;2.80;;
62951;SDS011;52163;52.212;-1.002;2022-08-21T03:12:52;12.10;;;2.50;;
62951;SDS011;52163;52.212;-1.002;2022-08-21T03:15:20;9.20;;;2.20;;
62951;SDS011;52163;52.212;-1.002;2022-08-21T03:17:47;11.50;;;2.20;;
62951;SDS011;52163;52.212;-1.002;2022-08-21T03:20:14;7.20;;;2.00;;
62951;SDS011;52163;52.212;-1.002;2022-08-21T03:22:41;8.30;;;2.10;;
62951;SDS011;52163;52.212;-1.002;2022-08-21T03:25:07;10.80;;;2.60;;
62951;SDS011;52163;52.212;-1.002;2022-08-21T03:27:34;11.40;;;2.60;;
62951;SDS011;52163;52.212;-1.002;2022-08-21T03:30:00;10.70;;;2.70;;
62951;SDS011;52163;52.212;-1.002;2022-08-21T03:32:26;11.90;;;2.40;;
62951;SDS011;52163;52.212;-1.002;2022-08-21T03:34:52;8.40;;;2.60;;
62951;SDS011;52163;52.212;-1.002;2022-08-21T03:37:17;9.10;;;2.40;;
62951;SDS011;52163;52.212;-1.002;2022-08-21T03:39:43;10.60;;;2.60;;
62951;SDS011;52163;52.212;-1.002;2022-08-21T03:42:09;7.80;;;2.10;;
62951;SDS011;52163;52.212;-1.002;2022-08-21T03:44:35;11.20;;;3.10;;
62951;SDS011;52163;52.212;-1.002;2022-08-21T03:47:02;7.40;;;2.50;;
62951;SDS011;52163;52.212;-1.002;2022-08-21T03:49:28;10.80;;;2.30;;
62951;SDS011;52163;52.212;-1.002;2022-08-21T03:51:53;18.60;;;3.40;;
62951;SDS011;52163;52.212;-1.002;2022-08-21T03:54:19;9.50;;;2.40;;
62951;SDS011;52163;52.212;-1.002;2022-08-21T03:56:45;8.70;;;2.50;;
62951;SDS011;52163;52.212;-1.002;2022-08-21T03:59:11;9.80;;;2.20;;
62951;SDS011;52163;52.212;-1.002;2022-08-21T04:01:36;11.90;;;2.30;;
62951;SDS011;52163;52.212;-1.002;2022-08-21T04:04:03;8.90;;;2.40;;
62951;SDS011;52163;52.212;-1.002;2022-08-21T04:06:29;9.50;;;2.40;;
62951;SDS011;52163;52.212;-1.002;2022-08-21T04:08:54;16.90;;;2.70;;
62951;SDS011;52163;52.212;-1.002;2022-08-21T04:11:20;10.80;;;2.70;;
62951;SDS011;52163;52.212;-1.002;2022-08-21T04:13:45;11.60;;;2.40;;
62951;SDS011;52163;52.212;-1.002;2022-08-21T04:16:11;10.00;;;2.00;;
62951;SDS011;52163;52.212;-1.002;2022-08-21T04:18:38;11.70;;;2.30;;
62951;SDS011;52163;52.212;-1.002;2022-08-21T04:21:03;11.90;;;2.50;;
62951;SDS011;52163;52.212;-1.002;2022-08-21T04:23:30;13.10;;;2.70;;
62951;SDS011;52163;52.212;-1.002;2022-08-21T04:25:56;9.30;;;3.00;;
62951;SDS011;52163;52.212;-1.002;2022-08-21T04:28:22;9.90;;;2.60;;
62951;SDS011;52163;52.212;-1.002;2022-08-21T04:30:50;10.30;;;2.80;;
62951;SDS011;52163;52.212;-1.002;2022-08-21T04:33:17;14.10;;;2.60;;
62951;SDS011;52163;52.212;-1.002;2022-08-21T04:35:43;9.90;;;2.30;;
62951;SDS011;52163;52.212;-1.002;2022-08-21T04:38:09;9.20;;;2.70;;
62951;SDS011;52163;52.212;-1.002;2022-08-21T04:40:35;12.90;;;2.50;;
62951;SDS011;52163;52.212;-1.002;2022-08-21T04:43:04;12.30;;;3.10;;
62951;SDS011;52163;52.212;-1.002;2022-08-21T04:45:33;13.90;;;2.70;;
62951;SDS011;52163;52.212;-1.002;2022-08-21T04:48:02;10.20;;;2.30;;
62951;SDS011;52163;52.212;-1.002;2022-08-21T04:50:41;8.50;;;2.70;;
62951;SDS011;52163;52.212;-1.002;2022-08-21T04:53:09;12.80;;;2.60;;
62951;SDS011;52163;52.212;-1.002;2022-08-21T04:55:43;10.70;;;2.60;;
62951;SDS011;52163;52.212;-1.002;2022-08-21T04:58:11;9.70;;;2.60;;
62951;SDS011;52163;52.212;-1.002;2022-08-21T05:00:40;13.10;;;2.50;;
62951;SDS011;52163;52.212;-1.002;2022-08-21T05:03:06;9.40;;;2.70;;
62951;SDS011;52163;52.212;-1.002;2022-08-21T05:05:34;8.60;;;2.30;;
62951;SDS011;52163;52.212;-1.002;2022-08-21T05:08:00;12.40;;;3.00;;
62951;SDS011;52163;52.212;-1.002;2022-08-21T05:10:27;10.80;;;2.40;;
62951;SDS011;52163;52.212;-1.002;2022-08-21T05:12:54;12.60;;;2.60;;
62951;SDS011;52163;52.212;-1.002;2022-08-21T05:15:20;8.50;;;2.40;;
62951;SDS011;52163;52.212;-1.002;2022-08-21T05:17:45;9.10;;;2.30;;
62951;SDS011;52163;52.212;-1.002;2022-08-21T05:20:12;10.30;;;2.50;;
62951;SDS011;52163;52.212;-1.002;2022-08-21T05:22:39;12.20;;;3.10;;
62951;SDS011;52163;52.212;-1.002;2022-08-21T05:25:06;9.20;;;2.50;;
62951;SDS011;52163;52.212;-1.002;2022-08-21T05:27:34;11.70;;;2.70;;
62951;SDS011;52163;52.212;-1.002;2022-08-21T05:30:00;9.10;;;1.90;;
62951;SDS011;52163;52.212;-1.002;2022-08-21T05:32:26;13.00;;;2.60;;
62951;SDS011;52163;52.212;-1.002;2022-08-21T05:34:53;10.10;;;2.10;;
62951;SDS011;52163;52.212;-1.002;2022-08-21T05:37:20;17.10;;;3.70;;
62951;SDS011;52163;52.212;-1.002;2022-08-21T05:39:45;10.90;;;2.40;;
62951;SDS011;52163;52.212;-1.002;2022-08-21T05:42:11;9.40;;;2.30;;
62951;SDS011;52163;52.212;-1.002;2022-08-21T05:44:37;10.60;;;2.30;;
62951;SDS011;52163;52.212;-1.002;2022-08-21T05:47:03;10.20;;;2.50;;
62951;SDS011;52163;52.212;-1.002;2022-08-21T05:49:33;6.70;;;2.10;;
62951;SDS011;52163;52.212;-1.002;2022-08-21T05:51:59;16.70;;;2.70;;
62951;SDS011;52163;52.212;-1.002;2022-08-21T05:54:25;8.20;;;2.20;;
62951;SDS011;52163;52.212;-1.002;2022-08-21T05:56:51;10.50;;;2.40;;
62951;SDS011;52163;52.212;-1.002;2022-08-21T05:59:17;12.70;;;2.50;;
62951;SDS011;52163;52.212;-1.002;2022-08-21T06:01:43;8.00;;;2.90;;
62951;SDS011;52163;52.212;-1.002;2022-08-21T06:04:10;12.60;;;2.80;;
62951;SDS011;52163;52.212;-1.002;2022-08-21T06:06:36;9.80;;;2.60;;
62951;SDS011;52163;52.212;-1.002;2022-08-21T06:09:03;10.90;;;2.50;;
62951;SDS011;52163;52.212;-1.002;2022-08-21T06:11:29;15.20;;;2.60;;
62951;SDS011;52163;52.212;-1.002;2022-08-21T06:13:55;16.30;;;3.40;;
62951;SDS011;52163;52.212;-1.002;2022-08-21T06:16:21;12.10;;;3.10;;
62951;SDS011;52163;52.212;-1.002;2022-08-21T06:18:47;8.70;;;2.60;;
62951;SDS011;52163;52.212;-1.002;2022-08-21T06:21:13;12.30;;;2.40;;
62951;SDS011;52163;52.212;-1.002;2022-08-21T06:23:39;9.10;;;2.70;;
62951;SDS011;52163;52.212;-1.002;2022-08-21T06:26:06;9.20;;;2.50;;
62951;SDS011;52163;52.212;-1.002;2022-08-21T06:28:33;15.90;;;3.20;;
62951;SDS011;52163;52.212;-1.002;2022-08-21T06:30:59;14.40;;;2.80;;
62951;SDS011;52163;52.212;-1.002;2022-08-21T06:33:24;12.70;;;4.30;;
62951;SDS011;52163;52.212;-1.002;2022-08-21T06:35:50;19.30;;;4.50;;
62951;SDS011;52163;52.212;-1.002;2022-08-21T06:38:16;11.10;;;3.10;;
62951;SDS011;52163;52.212;-1.002;2022-08-21T06:40:42;17.10;;;3.10;;
62951;SDS011;52163;52.212;-1.002;2022-08-21T06:43:09;15.50;;;3.10;;
62951;SDS011;52163;52.212;-1.002;2022-08-21T06:45:38;9.60;;;2.60;;
62951;SDS011;52163;52.212;-1.002;2022-08-21T06:48:04;13.30;;;3.70;;
62951;SDS011;52163;52.212;-1.002;2022-08-21T06:50:32;11.10;;;2.80;;
62951;SDS011;52163;52.212;-1.002;2022-08-21T06:53:01;12.40;;;2.80;;
62951;SDS011;52163;52.212;-1.002;2022-08-21T06:55:29;13.20;;;2.80;;
62951;SDS011;52163;52.212;-1.002;2022-08-21T06:57:55;13.20;;;2.80;;
62951;SDS011;52163;52.212;-1.002;2022-08-21T07:00:21;13.40;;;2.50;;
62951;SDS011;52163;52.212;-1.002;2022-08-21T07:02:46;11.50;;;2.60;;
62951;SDS011;52163;52.212;-1.002;2022-08-21T07:05:12;15.30;;;3.10;;
62951;SDS011;52163;52.212;-1.002;2022-08-21T07:07:38;9.30;;;2.90;;
62951;SDS011;52163;52.212;-1.002;2022-08-21T07:10:03;9.90;;;2.50;;
62951;SDS011;52163;52.212;-1.002;2022-08-21T07:12:29;9.10;;;1.90;;
62951;SDS011;52163;52.212;-1.002;2022-08-21T07:14:55;9.80;;;2.30;;
62951;SDS011;52163;52.212;-1.002;2022-08-21T07:17:20;11.90;;;2.90;;
62951;SDS011;52163;52.212;-1.002;2022-08-21T07:19:45;10.80;;;2.50;;
62951;SDS011;52163;52.212;-1.002;2022-08-21T07:22:11;11.70;;;3.10;;
62951;SDS011;52163;52.212;-1.002;2022-08-21T07:24:40;12.50;;;2.80;;
62951;SDS011;52163;52.212;-1.002;2022-08-21T07:27:05;12.10;;;3.10;;
62951;SDS011;52163;52.212;-1.002;2022-08-21T07:29:31;11.90;;;2.70;;
62951;SDS011;52163;52.212;-1.002;2022-08-21T07:31:56;15.70;;;3.40;;
62951;SDS011;52163;52.212;-1.002;2022-08-21T07:34:21;11.90;;;3.50;;
62951;SDS011;52163;52.212;-1.002;2022-08-21T07:36:47;14.50;;;3.50;;
62951;SDS011;52163;52.212;-1.002;2022-08-21T07:39:12;9.60;;;2.60;;
62951;SDS011;52163;52.212;-1.002;2022-08-21T07:41:38;9.60;;;3.00;;
62951;SDS011;52163;52.212;-1.002;2022-08-21T07:44:03;19.00;;;6.20;;
62951;SDS011;52163;52.212;-1.002;2022-08-21T07:46:29;13.80;;;5.20;;
62951;SDS011;52163;52.212;-1.002;2022-08-21T07:48:54;24.40;;;8.30;;
62951;SDS011;52163;52.212;-1.002;2022-08-21T07:51:21;21.60;;;11.20;;
62951;SDS011;52163;52.212;-1.002;2022-08-21T07:53:52;17.10;;;4.00;;
62951;SDS011;52163;52.212;-1.002;2022-08-21T07:56:19;10.30;;;3.30;;
62951;SDS011;52163;52.212;-1.002;2022-08-21T07:58:46;14.80;;;7.40;;
62951;SDS011;52163;52.212;-1.002;2022-08-21T08:01:12;15.80;;;4.40;;
62951;SDS011;52163;52.212;-1.002;2022-08-21T08:03:38;10.20;;;3.20;;
62951;SDS011;52163;52.212;-1.002;2022-08-21T08:06:05;15.40;;;4.00;;
62951;SDS011;52163;52.212;-1.002;2022-08-21T08:08:33;18.00;;;8.00;;
62951;SDS011;52163;52.212;-1.002;2022-08-21T08:10:59;13.30;;;6.60;;
62951;SDS011;52163;52.212;-1.002;2022-08-21T08:13:26;14.30;;;5.00;;
62951;SDS011;52163;52.212;-1.002;2022-08-21T08:15:52;18.60;;;7.90;;
62951;SDS011;52163;52.212;-1.002;2022-08-21T08:18:17;21.60;;;9.10;;
62951;SDS011;52163;52.212;-1.002;2022-08-21T08:20:43;13.70;;;5.60;;
62951;SDS011;52163;52.212;-1.002;2022-08-21T08:23:12;15.90;;;5.50;;
62951;SDS011;52163;52.212;-1.002;2022-08-21T08:25:42;14.90;;;5.70;;
62951;SDS011;52163;52.212;-1.002;2022-08-21T08:28:07;22.80;;;5.60;;
62951;SDS011;52163;52.212;-1.002;2022-08-21T08:30:33;17.10;;;5.30;;
62951;SDS011;52163;52.212;-1.002;2022-08-21T08:32:59;10.60;;;3.10;;
62951;SDS011;52163;52.212;-1.002;2022-08-21T08:35:25;10.90;;;3.50;;
62951;SDS011;52163;52.212;-1.002;2022-08-21T08:37:51;10.90;;;3.70;;
62951;SDS011;52163;52.212;-1.002;2022-08-21T08:40:22;13.10;;;3.60;;
62951;SDS011;52163;52.212;-1.002;2022-08-21T08:45:18;10.40;;;3.60;;
62951;SDS011;52163;52.212;-1.002;2022-08-21T08:47:49;10.80;;;3.30;;
62951;SDS011;52163;52.212;-1.002;2022-08-21T08:50:25;15.20;;;3.30;;
62951;SDS011;52163;52.212;-1.002;2022-08-21T08:53:13;12.50;;;3.30;;
62951;SDS011;52163;52.212;-1.002;2022-08-21T08:55:45;14.10;;;3.00;;
62951;SDS011;52163;52.212;-1.002;2022-08-21T08:58:28;12.50;;;3.40;;
62951;SDS011;52163;52.212;-1.002;2022-08-21T09:00:56;10.90;;;2.50;;
62951;SDS011;52163;52.212;-1.002;2022-08-21T09:03:23;15.70;;;3.90;;
62951;SDS011;52163;52.212;-1.002;2022-08-21T09:05:54;10.30;;;2.80;;
62951;SDS011;52163;52.212;-1.002;2022-08-21T09:11:13;13.20;;;3.60;;
62951;SDS011;52163;52.212;-1.002;2022-08-21T09:25:24;15.40;;;4.10;;
62951;SDS011;52163;52.212;-1.002;2022-08-21T09:27:51;16.40;;;3.50;;
62951;SDS011;52163;52.212;-1.002;2022-08-21T09:30:18;11.10;;;2.90;;
62951;SDS011;52163;52.212;-1.002;2022-08-21T09:32:48;10.90;;;3.30;;
62951;SDS011;52163;52.212;-1.002;2022-08-21T09:35:15;14.60;;;3.70;;
62951;SDS011;52163;52.212;-1.002;2022-08-21T09:38:06;15.00;;;3.10;;
62951;SDS011;52163;52.212;-1.002;2022-08-21T09:43:19;11.30;;;3.00;;
62951;SDS011;52163;52.212;-1.002;2022-08-21T09:45:47;14.10;;;3.00;;
62951;SDS011;52163;52.212;-1.002;2022-08-21T09:48:22;9.90;;;2.40;;
62951;SDS011;52163;52.212;-1.002;2022-08-21T09:50:50;11.20;;;2.50;;
62951;SDS011;52163;52.212;-1.002;2022-08-21T09:53:27;16.00;;;2.60;;
62951;SDS011;52163;52.212;-1.002;2022-08-21T09:55:59;11.30;;;2.70;;
62951;SDS011;52163;52.212;-1.002;2022-08-21T09:58:46;13.00;;;2.80;;
62951;SDS011;52163;52.212;-1.002;2022-08-21T10:01:15;15.40;;;3.80;;
62951;SDS011;52163;52.212;-1.002;2022-08-21T10:03:43;11.70;;;2.40;;
62951;SDS011;52163;52.212;-1.002;2022-08-21T10:06:09;10.40;;;2.60;;
62951;SDS011;52163;52.212;-1.002;2022-08-21T10:08:44;9.30;;;2.10;;
62951;SDS011;52163;52.212;-1.002;2022-08-21T10:11:12;13.30;;;3.40;;
62951;SDS011;52163;52.212;-1.002;2022-08-21T10:16:32;8.70;;;4.20;;
62951;SDS011;52163;52.212;-1.002;2022-08-21T10:24:32;13.20;;;3.60;;
62951;SDS011;52163;52.212;-1.002;2022-08-21T10:27:24;11.70;;;2.70;;
62951;SDS011;52163;52.212;-1.002;2022-08-21T10:29:59;9.90;;;3.10;;
62951;SDS011;52163;52.212;-1.002;2022-08-21T10:35:28;10.80;;;3.20;;
62951;SDS011;52163;52.212;-1.002;2022-08-21T10:41:21;11.10;;;3.30;;
62951;SDS011;52163;52.212;-1.002;2022-08-21T10:44:10;12.40;;;3.30;;
62951;SDS011;52163;52.212;-1.002;2022-08-21T10:54:49;10.50;;;3.00;;
62951;SDS011;52163;52.212;-1.002;2022-08-21T11:00:06;9.20;;;2.40;;
62951;SDS011;52163;52.212;-1.002;2022-08-21T11:05:54;10.50;;;3.30;;
62951;SDS011;52163;52.212;-1.002;2022-08-21T11:08:37;8.40;;;2.50;;
62951;SDS011;52163;52.212;-1.002;2022-08-21T11:11:23;8.60;;;2.50;;
62951;SDS011;52163;52.212;-1.002;2022-08-21T11:14:01;8.80;;;2.50;;
62951;SDS011;52163;52.212;-1.002;2022-08-21T11:16:39;9.20;;;3.00;;
62951;SDS011;52163;52.212;-1.002;2022-08-21T11:19:22;13.60;;;2.60;;
62951;SDS011;52163;52.212;-1.002;2022-08-21T11:21:58;5.20;;;2.10;;
62951;SDS011;52163;52.212;-1.002;2022-08-21T11:29:29;9.40;;;2.30;;
62951;SDS011;52163;52.212;-1.002;2022-08-21T11:43:19;14.60;;;2.30;;
62951;SDS011;52163;52.212;-1.002;2022-08-21T11:45:51;10.70;;;2.70;;
62951;SDS011;52163;52.212;-1.002;2022-08-21T11:50:46;8.00;;;2.30;;
62951;SDS011;52163;52.212;-1.002;2022-08-21T11:53:19;13.00;;;2.50;;
62951;SDS011;52163;52.212;-1.002;2022-08-21T12:01:27;9.20;;;2.10;;
62951;SDS011;52163;52.212;-1.002;2022-08-21T12:03:42;7.40;;;2.20;;
62951;SDS011;52163;52.212;-1.002;2022-08-21T12:06:28;8.20;;;2.40;;
62951;SDS011;52163;52.212;-1.002;2022-08-21T12:09:04;9.30;;;2.50;;
62951;SDS011;52163;52.212;-1.002;2022-08-21T12:11:32;7.20;;;2.40;;
62951;SDS011;52163;52.212;-1.002;2022-08-21T12:16:37;9.20;;;2.70;;
62951;SDS011;52163;52.212;-1.002;2022-08-21T12:19:12;10.80;;;2.60;;
62951;SDS011;52163;52.212;-1.002;2022-08-21T12:21:58;11.80;;;4.30;;
62951;SDS011;52163;52.212;-1.002;2022-08-21T12:30:18;14.00;;;4.70;;
62951;SDS011;52163;52.212;-1.002;2022-08-21T12:32:54;11.80;;;5.00;;
62951;SDS011;52163;52.212;-1.002;2022-08-21T12:35:26;13.20;;;3.50;;
62951;SDS011;52163;52.212;-1.002;2022-08-21T12:38:13;11.20;;;3.50;;
62951;SDS011;52163;52.212;-1.002;2022-08-21T12:41:04;10.10;;;2.80;;
62951;SDS011;52163;52.212;-1.002;2022-08-21T12:43:43;8.50;;;2.90;;
62951;SDS011;52163;52.212;-1.002;2022-08-21T12:46:15;8.20;;;3.20;;
62951;SDS011;52163;52.212;-1.002;2022-08-21T12:51:29;9.50;;;3.40;;
62951;SDS011;52163;52.212;-1.002;2022-08-21T12:54:01;12.60;;;6.10;;
62951;SDS011;52163;52.212;-1.002;2022-08-21T12:56:29;12.80;;;7.20;;
62951;SDS011;52163;52.212;-1.002;2022-08-21T12:59:02;12.80;;;7.30;;
62951;SDS011;52163;52.212;-1.002;2022-08-21T13:04:01;15.70;;;7.90;;
62951;SDS011;52163;52.212;-1.002;2022-08-21T13:06:36;15.70;;;6.30;;
62951;SDS011;52163;52.212;-1.002;2022-08-21T13:09:05;13.30;;;6.30;;
62951;SDS011;52163;52.212;-1.002;2022-08-21T13:11:33;14.10;;;4.30;;
62951;SDS011;52163;52.212;-1.002;2022-08-21T13:14:00;8.70;;;4.70;;
62951;SDS011;52163;52.212;-1.002;2022-08-21T13:16:28;7.90;;;2.80;;
62951;SDS011;52163;52.212;-1.002;2022-08-21T13:21:32;11.20;;;3.60;;
62951;SDS011;52163;52.212;-1.002;2022-08-21T13:26:45;7.90;;;2.50;;
62951;SDS011;52163;52.212;-1.002;2022-08-21T13:29:12;10.20;;;2.70;;
62951;SDS011;52163;52.212;-1.002;2022-08-21T13:31:45;9.40;;;2.70;;
62951;SDS011;52163;52.212;-1.002;2022-08-21T13:34:14;5.70;;;2.10;;
62951;SDS011;52163;52.212;-1.002;2022-08-21T13:36:43;8.40;;;2.70;;
62951;SDS011;52163;52.212;-1.002;2022-08-21T13:39:10;6.00;;;1.80;;
62951;SDS011;52163;52.212;-1.002;2022-08-21T13:41:40;5.40;;;1.90;;
62951;SDS011;52163;52.212;-1.002;2022-08-21T13:46:40;8.30;;;2.10;;
62951;SDS011;52163;52.212;-1.002;2022-08-21T13:49:06;6.30;;;2.10;;
62951;SDS011;52163;52.212;-1.002;2022-08-21T13:51:35;4.60;;;1.60;;
62951;SDS011;52163;52.212;-1.002;2022-08-21T13:54:02;11.00;;;3.40;;
62951;SDS011;52163;52.212;-1.002;2022-08-21T13:57:01;12.60;;;3.20;;
62951;SDS011;52163;52.212;-1.002;2022-08-21T13:59:33;11.10;;;5.00;;
62951;SDS011;52163;52.212;-1.002;2022-08-21T14:02:08;10.30;;;5.90;;
62951;SDS011;52163;52.212;-1.002;2022-08-21T14:04:39;10.00;;;5.20;;
62951;SDS011;52163;52.212;-1.002;2022-08-21T14:07:22;9.40;;;3.40;;
62951;SDS011;52163;52.212;-1.002;2022-08-21T14:10:11;7.30;;;2.50;;
62951;SDS011;52163;52.212;-1.002;2022-08-21T14:12:42;7.90;;;2.30;;
62951;SDS011;52163;52.212;-1.002;2022-08-21T14:15:14;6.60;;;2.90;;
62951;SDS011;52163;52.212;-1.002;2022-08-21T14:17:42;8.10;;;2.60;;
62951;SDS011;52163;52.212;-1.002;2022-08-21T14:20:10;7.30;;;2.20;;
62951;SDS011;52163;52.212;-1.002;2022-08-21T14:25:08;10.80;;;5.10;;
62951;SDS011;52163;52.212;-1.002;2022-08-21T14:27:36;10.80;;;5.70;;
62951;SDS011;52163;52.212;-1.002;2022-08-21T14:30:41;13.20;;;6.60;;
62951;SDS011;52163;52.212;-1.002;2022-08-21T14:33:01;9.40;;;5.60;;
62951;SDS011;52163;52.212;-1.002;2022-08-21T14:35:28;11.80;;;6.80;;
62951;SDS011;52163;52.212;-1.002;2022-08-21T14:37:54;7.20;;;2.50;;
62951;SDS011;52163;52.212;-1.002;2022-08-21T14:40:21;7.60;;;3.40;;
62951;SDS011;52163;52.212;-1.002;2022-08-21T14:42:47;10.50;;;5.20;;
62951;SDS011;52163;52.212;-1.002;2022-08-21T14:45:24;5.40;;;2.30;;
62951;SDS011;52163;52.212;-1.002;2022-08-21T14:47:52;7.10;;;4.10;;
62951;SDS011;52163;52.212;-1.002;2022-08-21T14:50:18;5.90;;;2.10;;
62951;SDS011;52163;52.212;-1.002;2022-08-21T14:52:44;5.20;;;3.20;;
62951;SDS011;52163;52.212;-1.002;2022-08-21T14:55:11;4.20;;;1.80;;
62951;SDS011;52163;52.212;-1.002;2022-08-21T14:57:41;6.90;;;2.80;;
62951;SDS011;52163;52.212;-1.002;2022-08-21T15:00:10;3.60;;;2.00;;
62951;SDS011;52163;52.212;-1.002;2022-08-21T15:02:37;5.80;;;2.70;;
62951;SDS011;52163;52.212;-1.002;2022-08-21T15:05:03;4.10;;;1.70;;
62951;SDS011;52163;52.212;-1.002;2022-08-21T15:07:29;5.10;;;1.80;;
62951;SDS011;52163;52.212;-1.002;2022-08-21T15:09:55;7.30;;;2.00;;
62951;SDS011;52163;52.212;-1.002;2022-08-21T15:12:20;4.40;;;1.60;;
62951;SDS011;52163;52.212;-1.002;2022-08-21T15:14:46;3.20;;;1.30;;
62951;SDS011;52163;52.212;-1.002;2022-08-21T15:17:11;5.80;;;1.40;;
62951;SDS011;52163;52.212;-1.002;2022-08-21T15:19:37;5.50;;;1.60;;
62951;SDS011;52163;52.212;-1.002;2022-08-21T15:22:03;5.90;;;1.60;;
62951;SDS011;52163;52.212;-1.002;2022-08-21T15:24:29;6.20;;;1.50;;
62951;SDS011;52163;52.212;-1.002;2022-08-21T15:26:55;4.20;;;1.70;;
62951;SDS011;52163;52.212;-1.002;2022-08-21T15:29:21;7.80;;;1.80;;
62951;SDS011;52163;52.212;-1.002;2022-08-21T15:31:55;4.40;;;1.60;;
62951;SDS011;52163;52.212;-1.002;2022-08-21T15:34:23;5.10;;;1.30;;
62951;SDS011;52163;52.212;-1.002;2022-08-21T15:36:50;5.20;;;1.70;;
62951;SDS011;52163;52.212;-1.002;2022-08-21T15:39:16;4.80;;;1.40;;
62951;SDS011;52163;52.212;-1.002;2022-08-21T15:41:42;5.50;;;1.60;;
62951;SDS011;52163;52.212;-1.002;2022-08-21T15:44:09;6.70;;;1.70;;
62951;SDS011;52163;52.212;-1.002;2022-08-21T15:46:36;2.90;;;1.40;;
62951;SDS011;52163;52.212;-1.002;2022-08-21T15:49:02;5.00;;;1.50;;
62951;SDS011;52163;52.212;-1.002;2022-08-21T15:51:28;5.10;;;1.30;;
62951;SDS011;52163;52.212;-1.002;2022-08-21T15:53:53;7.30;;;1.80;;
62951;SDS011;52163;52.212;-1.002;2022-08-21T15:56:23;5.10;;;1.70;;
62951;SDS011;52163;52.212;-1.002;2022-08-21T15:58:50;4.40;;;1.40;;
62951;SDS011;52163;52.212;-1.002;2022-08-21T16:01:19;4.10;;;1.30;;
62951;SDS011;52163;52.212;-1.002;2022-08-21T16:03:47;5.30;;;1.90;;
62951;SDS011;52163;52.212;-1.002;2022-08-21T16:06:15;3.90;;;1.80;;
62951;SDS011;52163;52.212;-1.002;2022-08-21T16:08:41;4.70;;;1.70;;
62951;SDS011;52163;52.212;-1.002;2022-08-21T16:11:06;4.60;;;1.60;;